createdAt,value
2022-08-25T05:27:19.877Z,101325.53
2022-08-25T05:29:47.229Z,101337.34
2022-08-25T05:32:14.665Z,101342.09
2022-08-25T05:34:42.416Z,101365.25
2022-08-25T05:37:12.173Z,101387.06
2022-08-25T05:39:40.137Z,101411.75
2022-08-25T05:42:07.613Z,101427.97
2022-08-25T05:44:35.204Z,101450.06
2022-08-25T05:47:02.274Z,101480.34
2022-08-25T05:49:29.384Z,101496.19
2022-08-25T05:51:56.517Z,101514.38
2022-08-25T05:58:30.499Z,101561.16
2022-08-25T06:01:19.304Z,101578.69
2022-08-25T06:03:47.965Z,101600.09
2022-08-25T06:06:18.707Z,101614.22
2022-08-25T06:08:46.076Z,101613.72
2022-08-25T06:11:16.214Z,101637.84
2022-08-25T06:13:43.831Z,101635.00
2022-08-25T06:16:11.013Z,101631.75
2022-08-25T06:18:38.204Z,101630.41
2022-08-25T06:21:13.084Z,101642.00
2022-08-25T06:23:41.006Z,101650.69
2022-08-25T06:26:13.187Z,101650.16
2022-08-25T06:28:49.085Z,101640.81
2022-08-25T06:31:17.355Z,101648.03
2022-08-25T06:33:44.884Z,101648.88
2022-08-25T06:36:12.761Z,101663.44
2022-08-25T06:38:40.426Z,101672.22
2022-08-25T06:41:10.626Z,101687.31
2022-08-25T06:43:41.703Z,101705.72
2022-08-25T06:46:19.052Z,101702.00
2022-08-25T06:48:46.308Z,101703.63
2022-08-25T06:51:17.067Z,101733.31
2022-08-25T06:53:46.471Z,101736.97
2022-08-25T06:56:15.239Z,101748.66
2022-08-25T06:58:43.234Z,101754.13
2022-08-25T07:01:20.778Z,101754.41
2022-08-25T07:03:49.007Z,101755.03
2022-08-25T07:06:21.250Z,101747.84
2022-08-25T07:08:48.731Z,101767.75
2022-08-25T07:11:17.450Z,101763.59
2022-08-25T07:13:45.759Z,101768.00
2022-08-25T07:16:17.544Z,101779.78
2022-08-25T07:18:45.390Z,101794.19
2022-08-25T07:21:13.881Z,101806.16
2022-08-25T07:23:41.998Z,101801.50
2022-08-25T07:26:36.637Z,101802.00
2022-08-25T07:29:12.224Z,101800.69
2022-08-25T07:31:40.037Z,101800.22
2022-08-25T07:34:27.101Z,101798.53
2022-08-25T07:36:57.028Z,101800.81
2022-08-25T07:39:25.675Z,101806.16
2022-08-25T07:41:53.608Z,101818.25
2022-08-25T07:44:43.457Z,101832.13
2022-08-25T07:47:10.838Z,101826.09
2022-08-25T07:49:39.888Z,101838.41
2022-08-25T07:52:07.358Z,101837.13
2022-08-25T07:54:37.904Z,101856.06
2022-08-25T07:57:07.875Z,101855.66
2022-08-25T07:59:40.244Z,101862.03
2022-08-25T08:02:18.025Z,101872.06
2022-08-25T08:04:51.307Z,101889.66
2022-08-25T08:07:23.029Z,101901.16
2022-08-25T08:10:04.766Z,101901.06
2022-08-25T08:12:39.665Z,101914.03
2022-08-25T08:15:10.255Z,101915.47
2022-08-25T08:17:39.794Z,101928.97
2022-08-25T08:20:11.459Z,101915.09
2022-08-25T08:22:41.242Z,101927.16
2022-08-25T08:25:11.047Z,101927.94
2022-08-25T08:27:42.924Z,101936.81
2022-08-25T08:30:11.248Z,101936.25
2022-08-25T08:33:06.307Z,101930.16
2022-08-25T08:35:26.254Z,101938.38
2022-08-25T08:37:53.949Z,101921.38
2022-08-25T08:40:21.874Z,101939.56
2022-08-25T08:43:04.293Z,101954.03
2022-08-25T08:45:40.281Z,101949.56
2022-08-25T08:48:22.385Z,101940.00
2022-08-25T08:50:59.373Z,101938.41
2022-08-25T08:53:37.964Z,101947.38
2022-08-25T08:56:12.372Z,101941.88
2022-08-25T08:58:50.145Z,101936.41
2022-08-25T09:01:36.193Z,101938.00
2022-08-25T09:04:11.473Z,101933.22
2022-08-25T09:06:49.828Z,101922.19
2022-08-25T09:09:35.687Z,101926.41
2022-08-25T09:12:12.663Z,101923.53
2022-08-25T09:14:40.494Z,101928.41
2022-08-25T09:17:58.847Z,101923.28
2022-08-25T09:21:11.101Z,101930.91
2022-08-25T09:24:06.252Z,101934.16
2022-08-25T09:26:40.056Z,101926.78
2022-08-25T09:29:16.599Z,101932.13
2022-08-25T09:31:45.440Z,101933.47
2022-08-25T09:34:19.023Z,101942.28
2022-08-25T09:36:48.953Z,101945.44
2022-08-25T09:39:16.768Z,101940.78
2022-08-25T09:41:56.379Z,101927.03
2022-08-25T09:44:26.973Z,101923.53
2022-08-25T09:47:02.450Z,101929.09
2022-08-25T09:49:45.641Z,101920.44
2022-08-25T09:52:25.361Z,101912.56
2022-08-25T09:54:57.685Z,101907.03
2022-08-25T09:57:43.278Z,101921.31
2022-08-25T10:00:22.448Z,101913.44
2022-08-25T10:03:09.255Z,101916.69
2022-08-25T10:05:56.321Z,101917.47
2022-08-25T10:08:36.155Z,101918.25
2022-08-25T10:11:09.018Z,101906.44
2022-08-25T10:13:43.048Z,101895.31
2022-08-25T10:16:24.148Z,101906.34
2022-08-25T10:19:10.383Z,101896.78
2022-08-25T10:21:40.382Z,101887.31
2022-08-25T10:24:11.272Z,101880.03
2022-08-25T10:26:57.478Z,101886.03
2022-08-25T10:29:46.320Z,101887.41
2022-08-25T10:32:22.219Z,101877.66
2022-08-25T10:34:54.594Z,101872.97
2022-08-25T10:37:45.287Z,101882.09
2022-08-25T10:40:25.410Z,101874.28
2022-08-25T10:43:25.547Z,101862.28
2022-08-25T10:46:16.423Z,101862.56
2022-08-25T10:49:04.216Z,101867.13
2022-08-25T10:51:51.006Z,101865.66
2022-08-25T10:54:32.257Z,101855.84
2022-08-25T10:57:21.694Z,101854.88
2022-08-25T11:00:05.128Z,101853.59
2022-08-25T11:02:44.629Z,101841.97
2022-08-25T11:05:30.353Z,101841.50
2022-08-25T11:08:14.561Z,101842.31
2022-08-25T11:10:56.638Z,101834.00
2022-08-25T11:13:34.407Z,101844.66
2022-08-25T11:16:18.920Z,101838.72
2022-08-25T11:18:53.260Z,101828.19
2022-08-25T11:21:36.481Z,101824.09
2022-08-25T11:24:15.495Z,101813.69
2022-08-25T11:26:53.557Z,101824.75
2022-08-25T11:29:23.973Z,101823.19
2022-08-25T11:32:00.541Z,101831.19
2022-08-25T11:34:32.570Z,101819.78
2022-08-25T11:37:11.317Z,101826.81
2022-08-25T11:40:04.031Z,101814.19
2022-08-25T11:42:37.430Z,101810.88
2022-08-25T11:45:42.402Z,101804.44
2022-08-25T11:48:35.535Z,101796.91
2022-08-25T11:51:06.833Z,101799.41
2022-08-25T11:53:45.745Z,101806.97
2022-08-25T11:56:33.350Z,101788.53
2022-08-25T11:59:02.133Z,101793.19
2022-08-25T12:01:32.655Z,101787.59
2022-08-25T12:04:18.923Z,101793.69
2022-08-25T12:07:23.953Z,101775.88
2022-08-25T12:09:51.496Z,101776.31
2022-08-25T12:15:32.901Z,101766.66
2022-08-25T12:25:33.958Z,101749.53
2022-08-25T12:28:43.354Z,101738.22
2022-08-25T12:31:32.674Z,101738.16
2022-08-25T12:34:11.038Z,101741.34
2022-08-25T12:36:40.174Z,101735.38
2022-08-25T12:39:24.396Z,101735.94
2022-08-25T12:42:29.926Z,101735.47
2022-08-25T12:45:21.619Z,101726.94
2022-08-25T12:47:50.034Z,101715.00
2022-08-25T12:50:41.655Z,101725.56
2022-08-25T12:53:15.767Z,101710.78
2022-08-25T12:56:00.635Z,101713.56
2022-08-25T12:58:56.587Z,101712.81
2022-08-25T13:01:35.604Z,101715.50
2022-08-25T13:04:12.553Z,101711.53
2022-08-25T13:07:09.423Z,101709.78
2022-08-25T13:09:52.576Z,101702.53
2022-08-25T13:12:45.532Z,101699.47
2022-08-25T13:15:18.136Z,101691.63
2022-08-25T13:17:49.299Z,101691.22
2022-08-25T13:20:24.857Z,101692.59
2022-08-25T13:22:57.902Z,101695.50
2022-08-25T13:25:32.681Z,101684.03
2022-08-25T13:28:06.649Z,101685.44
2022-08-25T13:30:39.466Z,101673.19
2022-08-25T13:33:22.940Z,101684.66
2022-08-25T13:36:13.140Z,101683.25
2022-08-25T13:38:40.526Z,101687.94
2022-08-25T13:41:10.030Z,101669.53
2022-08-25T13:43:39.207Z,101666.44
2022-08-25T13:46:10.691Z,101659.50
2022-08-25T13:48:49.797Z,101655.13
2022-08-25T13:51:31.356Z,101652.38
2022-08-25T13:54:06.267Z,101655.22
2022-08-25T13:56:41.362Z,101654.91
2022-08-25T13:59:35.286Z,101656.84
2022-08-25T14:02:19.269Z,101652.28
2022-08-25T14:04:51.244Z,101652.81
2022-08-25T14:07:26.047Z,101662.03
2022-08-25T14:09:58.131Z,101653.91
2022-08-25T14:12:40.339Z,101641.09
2022-08-25T14:18:26.931Z,101637.91
2022-08-25T14:20:56.274Z,101630.00
2022-08-25T14:23:27.672Z,101636.16
2022-08-25T14:25:57.150Z,101629.91
2022-08-25T14:28:27.352Z,101623.34
2022-08-25T14:30:58.817Z,101623.34
2022-08-25T14:33:37.278Z,101622.84
2022-08-25T14:36:05.466Z,101612.22
2022-08-25T14:38:33.832Z,101620.03
2022-08-25T14:41:01.861Z,101619.81
2022-08-25T14:43:31.421Z,101612.66
2022-08-25T14:46:07.500Z,101604.16
2022-08-25T14:48:47.020Z,101601.97
2022-08-25T14:51:17.265Z,101607.50
2022-08-25T14:53:44.745Z,101601.63
2022-08-25T14:56:12.087Z,101604.97
2022-08-25T14:58:48.351Z,101604.97
2022-08-25T15:01:29.504Z,101593.50
2022-08-25T15:04:10.656Z,101590.22
2022-08-25T15:06:42.132Z,101589.34
2022-08-25T15:09:15.967Z,101585.53
2022-08-25T15:11:46.625Z,101585.44
2022-08-25T15:14:19.235Z,101582.25
2022-08-25T15:16:58.567Z,101573.56
2022-08-25T15:19:27.193Z,101567.88
2022-08-25T15:21:57.919Z,101574.47
2022-08-25T15:24:29.923Z,101579.97
2022-08-25T15:29:43.014Z,101573.06
2022-08-25T15:32:10.319Z,101572.44
2022-08-25T15:34:38.607Z,101570.31
2022-08-25T15:37:11.564Z,101570.38
2022-08-25T15:39:42.541Z,101566.13
2022-08-25T15:42:12.568Z,101571.13
2022-08-25T15:44:40.425Z,101568.44
2022-08-25T15:47:08.652Z,101561.41
2022-08-25T15:49:40.077Z,101563.41
2022-08-25T15:52:07.275Z,101550.56
2022-08-25T15:54:34.768Z,101548.22
2022-08-25T15:57:08.827Z,101548.53
2022-08-25T15:59:40.266Z,101551.09
2022-08-25T16:02:15.063Z,101549.47
2022-08-25T16:04:42.882Z,101543.25
2022-08-25T16:07:13.511Z,101548.13
2022-08-25T16:09:41.444Z,101536.22
2022-08-25T16:12:08.935Z,101533.06
2022-08-25T16:14:38.223Z,101537.88
2022-08-25T16:17:06.047Z,101533.09
2022-08-25T16:19:33.385Z,101527.19
2022-08-25T16:22:03.555Z,101538.91
2022-08-25T16:24:38.395Z,101527.56
2022-08-25T16:27:11.519Z,101530.44
2022-08-25T16:29:46.359Z,101518.91
2022-08-25T16:32:14.734Z,101529.38
2022-08-25T16:34:44.262Z,101522.97
2022-08-25T16:37:12.393Z,101521.41
2022-08-25T16:39:44.876Z,101517.28
2022-08-25T16:42:14.983Z,101511.38
2022-08-25T16:44:44.947Z,101522.53
2022-08-25T16:47:17.807Z,101510.25
2022-08-25T16:49:48.656Z,101504.94
2022-08-25T16:52:35.807Z,101505.97
2022-08-25T16:55:15.974Z,101504.56
2022-08-25T16:57:51.928Z,101511.31
2022-08-25T17:00:22.480Z,101499.25
2022-08-25T17:03:01.290Z,101490.69
2022-08-25T17:05:29.701Z,101492.16
2022-08-25T17:08:18.356Z,101495.34
2022-08-25T17:10:47.352Z,101499.25
2022-08-25T17:13:14.723Z,101508.69
2022-08-25T17:15:45.484Z,101503.97
2022-08-25T17:18:13.740Z,101499.16
2022-08-25T17:20:45.429Z,101495.81
2022-08-25T17:23:13.238Z,101505.78
2022-08-25T17:25:43.057Z,101506.09
2022-08-25T17:28:12.262Z,101511.25
2022-08-25T17:30:40.241Z,101510.97
2022-08-25T17:33:07.503Z,101511.63
2022-08-25T17:38:09.971Z,101510.22
2022-08-25T17:40:37.900Z,101505.69
2022-08-25T17:43:08.874Z,101511.00
2022-08-25T17:45:37.897Z,101508.81
2022-08-25T17:48:09.100Z,101515.19
2022-08-25T17:50:38.892Z,101510.59
2022-08-25T17:53:06.441Z,101510.59
2022-08-25T17:55:35.114Z,101507.84
2022-08-25T17:58:05.320Z,101498.13
2022-08-25T18:00:32.939Z,101512.47
2022-08-25T18:03:00.929Z,101516.50
2022-08-25T18:05:30.672Z,101519.34
2022-08-25T18:07:57.898Z,101515.19
2022-08-25T18:10:26.094Z,101519.25
2022-08-25T18:12:53.430Z,101524.13
2022-08-25T18:15:21.493Z,101507.53
2022-08-25T18:17:50.459Z,101517.53
2022-08-25T18:20:17.887Z,101515.72
2022-08-25T18:22:45.080Z,101520.53
2022-08-25T18:25:14.843Z,101527.34
2022-08-25T18:27:44.043Z,101522.28
2022-08-25T18:30:12.169Z,101521.69
2022-08-25T18:32:39.676Z,101527.63
2022-08-25T18:35:07.327Z,101526.13
2022-08-25T18:37:53.010Z,101525.00
2022-08-25T18:40:23.811Z,101529.88
2022-08-25T18:43:02.475Z,101530.69
2022-08-25T18:45:33.260Z,101530.72
2022-08-25T18:48:01.100Z,101524.03
2022-08-25T18:50:33.766Z,101530.00
2022-08-25T18:53:03.046Z,101533.59
2022-08-25T18:55:34.283Z,101529.31
2022-08-25T18:58:01.614Z,101525.34
2022-08-25T19:00:31.065Z,101527.34
2022-08-25T19:03:00.196Z,101524.59
2022-08-25T19:05:34.125Z,101526.16
2022-08-25T19:08:04.146Z,101520.28
2022-08-25T19:10:32.466Z,101529.75
2022-08-25T19:13:02.216Z,101533.69
2022-08-25T19:15:36.863Z,101525.00
2022-08-25T19:18:09.212Z,101526.56
2022-08-25T19:20:37.838Z,101513.53
2022-08-25T19:23:07.582Z,101531.72
2022-08-25T19:25:36.886Z,101526.97
2022-08-25T19:28:12.221Z,101528.94
2022-08-25T19:30:39.867Z,101525.38
2022-08-25T19:33:34.364Z,101526.19
2022-08-25T19:36:08.691Z,101524.63
2022-08-25T19:38:37.083Z,101532.13
2022-08-25T19:41:09.062Z,101527.78
2022-08-25T19:43:56.622Z,101519.13
2022-08-25T19:46:33.094Z,101523.44
2022-08-25T19:49:08.348Z,101521.06
2022-08-25T19:51:39.446Z,101534.50
2022-08-25T19:54:09.212Z,101526.59
2022-08-25T19:56:53.735Z,101520.69
2022-08-25T19:59:40.813Z,101529.75
2022-08-25T20:02:25.494Z,101515.13
2022-08-25T20:04:59.860Z,101520.66
2022-08-25T20:07:31.185Z,101522.22
2022-08-25T20:09:59.503Z,101517.47
2022-08-25T20:12:28.976Z,101515.03
2022-08-25T20:14:56.667Z,101511.88
2022-08-25T20:17:28.457Z,101512.31
2022-08-25T20:19:58.749Z,101519.78
2022-08-25T20:22:29.141Z,101519.00
2022-08-25T20:25:01.211Z,101518.19
2022-08-25T20:27:33.956Z,101517.38
2022-08-25T20:30:02.833Z,101523.59
2022-08-25T20:32:32.820Z,101518.81
2022-08-25T20:35:01.211Z,101512.91
2022-08-25T20:37:29.175Z,101515.66
2022-08-25T20:39:56.573Z,101513.28
2022-08-25T20:42:24.770Z,101518.03
2022-08-25T20:44:52.916Z,101514.88
2022-08-25T20:47:21.246Z,101522.75
2022-08-25T20:49:51.045Z,101515.25
2022-08-25T20:52:19.867Z,101515.19
2022-08-25T20:54:49.444Z,101519.16
2022-08-25T20:57:25.494Z,101521.53
2022-08-25T20:59:54.180Z,101513.22
2022-08-25T21:02:22.182Z,101516.31
2022-08-25T21:04:51.786Z,101517.91
2022-08-25T21:07:21.366Z,101514.72
2022-08-25T21:09:51.804Z,101511.53
2022-08-25T21:12:20.224Z,101503.63
2022-08-25T21:14:49.025Z,101494.94
2022-08-25T21:17:19.008Z,101499.63
2022-08-25T21:22:20.666Z,101480.72
2022-08-25T21:24:47.794Z,101475.16
2022-08-25T21:27:15.296Z,101470.41
2022-08-25T21:29:44.589Z,101468.44
2022-08-25T21:32:23.680Z,101464.88
2022-08-25T21:34:53.066Z,101457.81
2022-08-25T21:37:21.061Z,101464.09
2022-08-25T21:39:48.604Z,101454.19
2022-08-25T21:42:18.815Z,101447.91
2022-08-25T21:44:45.926Z,101448.28
2022-08-25T21:47:13.062Z,101453.41
2022-08-25T21:49:40.201Z,101451.44
2022-08-25T21:52:09.764Z,101437.63
2022-08-25T21:54:38.082Z,101441.19
2022-08-25T21:57:07.081Z,101438.41
2022-08-25T21:59:40.238Z,101436.38
